sensor_id;sensor_type;location;lat;lon;timestamp;P1;durP1;ratioP1;P2;durP2;ratioP2
20629;SDS011;17386;43.846;25.950;2022-12-07T00:02:15;32.35;;;11.48;;
20629;SDS011;17386;43.846;25.950;2022-12-07T00:04:40;34.80;;;10.52;;
20629;SDS011;17386;43.846;25.950;2022-12-07T00:07:05;34.97;;;9.25;;
20629;SDS011;17386;43.846;25.950;2022-12-07T00:09:31;36.13;;;10.85;;
20629;SDS011;17386;43.846;25.950;2022-12-07T00:11:56;35.50;;;10.68;;
20629;SDS011;17386;43.846;25.950;2022-12-07T00:14:21;33.22;;;10.32;;
20629;SDS011;17386;43.846;25.950;2022-12-07T00:16:48;29.17;;;9.52;;
20629;SDS011;17386;43.846;25.950;2022-12-07T00:19:16;30.10;;;9.38;;
20629;SDS011;17386;43.846;25.950;2022-12-07T00:21:42;30.33;;;11.38;;
20629;SDS011;17386;43.846;25.950;2022-12-07T00:24:07;31.42;;;9.82;;
20629;SDS011;17386;43.846;25.950;2022-12-07T00:26:38;33.63;;;9.82;;
20629;SDS011;17386;43.846;25.950;2022-12-07T00:29:06;28.67;;;9.68;;
20629;SDS011;17386;43.846;25.950;2022-12-07T00:31:33;33.20;;;10.35;;
20629;SDS011;17386;43.846;25.950;2022-12-07T00:34:03;34.22;;;10.48;;
20629;SDS011;17386;43.846;25.950;2022-12-07T00:36:29;40.88;;;11.52;;
20629;SDS011;17386;43.846;25.950;2022-12-07T00:38:55;30.27;;;9.85;;
20629;SDS011;17386;43.846;25.950;2022-12-07T00:41:24;33.10;;;11.07;;
20629;SDS011;17386;43.846;25.950;2022-12-07T00:46:16;30.85;;;10.10;;
20629;SDS011;17386;43.846;25.950;2022-12-07T00:48:43;36.67;;;10.32;;
20629;SDS011;17386;43.846;25.950;2022-12-07T00:51:09;35.20;;;10.20;;
20629;SDS011;17386;43.846;25.950;2022-12-07T00:53:37;34.75;;;10.57;;
20629;SDS011;17386;43.846;25.950;2022-12-07T00:56:06;33.50;;;10.63;;
20629;SDS011;17386;43.846;25.950;2022-12-07T00:58:37;33.65;;;10.60;;
20629;SDS011;17386;43.846;25.950;2022-12-07T01:01:03;29.08;;;9.85;;
20629;SDS011;17386;43.846;25.950;2022-12-07T01:03:29;39.47;;;11.93;;
20629;SDS011;17386;43.846;25.950;2022-12-07T01:05:55;35.05;;;9.88;;
20629;SDS011;17386;43.846;25.950;2022-12-07T01:08:22;34.75;;;11.15;;
20629;SDS011;17386;43.846;25.950;2022-12-07T01:10:48;37.00;;;11.85;;
20629;SDS011;17386;43.846;25.950;2022-12-07T01:13:14;36.58;;;10.88;;
20629;SDS011;17386;43.846;25.950;2022-12-07T01:15:43;33.25;;;9.45;;
20629;SDS011;17386;43.846;25.950;2022-12-07T01:18:09;32.58;;;11.32;;
20629;SDS011;17386;43.846;25.950;2022-12-07T01:20:36;30.85;;;10.57;;
20629;SDS011;17386;43.846;25.950;2022-12-07T01:23:02;34.28;;;9.48;;
20629;SDS011;17386;43.846;25.950;2022-12-07T01:25:28;32.30;;;10.43;;
20629;SDS011;17386;43.846;25.950;2022-12-07T01:27:53;33.42;;;11.73;;
20629;SDS011;17386;43.846;25.950;2022-12-07T01:30:19;36.22;;;11.57;;
20629;SDS011;17386;43.846;25.950;2022-12-07T01:32:44;31.15;;;10.50;;
20629;SDS011;17386;43.846;25.950;2022-12-07T01:35:09;33.72;;;11.27;;
20629;SDS011;17386;43.846;25.950;2022-12-07T01:37:35;30.15;;;9.82;;
20629;SDS011;17386;43.846;25.950;2022-12-07T01:40:03;31.10;;;9.77;;
20629;SDS011;17386;43.846;25.950;2022-12-07T01:42:30;29.90;;;10.48;;
20629;SDS011;17386;43.846;25.950;2022-12-07T01:48:04;35.00;;;10.25;;
20629;SDS011;17386;43.846;25.950;2022-12-07T01:50:31;25.27;;;9.63;;
20629;SDS011;17386;43.846;25.950;2022-12-07T01:52:56;31.90;;;9.45;;
20629;SDS011;17386;43.846;25.950;2022-12-07T01:55:26;28.75;;;10.55;;
20629;SDS011;17386;43.846;25.950;2022-12-07T01:57:52;33.47;;;10.90;;
20629;SDS011;17386;43.846;25.950;2022-12-07T02:00:19;26.58;;;8.85;;
20629;SDS011;17386;43.846;25.950;2022-12-07T02:02:53;35.35;;;10.88;;
20629;SDS011;17386;43.846;25.950;2022-12-07T02:05:23;31.75;;;9.52;;
20629;SDS011;17386;43.846;25.950;2022-12-07T02:07:49;31.92;;;10.77;;
20629;SDS011;17386;43.846;25.950;2022-12-07T02:15:12;30.65;;;9.85;;
20629;SDS011;17386;43.846;25.950;2022-12-07T02:20:25;33.85;;;9.75;;
20629;SDS011;17386;43.846;25.950;2022-12-07T02:28:19;33.07;;;9.57;;
20629;SDS011;17386;43.846;25.950;2022-12-07T02:31:02;32.63;;;10.35;;
20629;SDS011;17386;43.846;25.950;2022-12-07T02:33:37;36.85;;;10.95;;
20629;SDS011;17386;43.846;25.950;2022-12-07T02:36:10;38.60;;;10.07;;
20629;SDS011;17386;43.846;25.950;2022-12-07T02:38:47;39.22;;;10.50;;
20629;SDS011;17386;43.846;25.950;2022-12-07T02:41:33;37.72;;;11.13;;
20629;SDS011;17386;43.846;25.950;2022-12-07T02:44:13;39.72;;;11.32;;
20629;SDS011;17386;43.846;25.950;2022-12-07T02:46:43;41.40;;;11.90;;
20629;SDS011;17386;43.846;25.950;2022-12-07T02:49:13;40.25;;;11.13;;
20629;SDS011;17386;43.846;25.950;2022-12-07T02:51:43;43.53;;;12.88;;
20629;SDS011;17386;43.846;25.950;2022-12-07T02:54:14;47.30;;;11.55;;
20629;SDS011;17386;43.846;25.950;2022-12-07T03:10:56;45.33;;;11.52;;
20629;SDS011;17386;43.846;25.950;2022-12-07T03:13:28;39.10;;;9.50;;
20629;SDS011;17386;43.846;25.950;2022-12-07T03:19:06;45.10;;;11.65;;
20629;SDS011;17386;43.846;25.950;2022-12-07T03:21:37;51.63;;;12.43;;
20629;SDS011;17386;43.846;25.950;2022-12-07T03:24:13;51.78;;;11.88;;
20629;SDS011;17386;43.846;25.950;2022-12-07T03:26:44;53.83;;;13.35;;
20629;SDS011;17386;43.846;25.950;2022-12-07T03:29:20;55.17;;;12.93;;
20629;SDS011;17386;43.846;25.950;2022-12-07T03:31:52;58.60;;;13.15;;
20629;SDS011;17386;43.846;25.950;2022-12-07T03:34:32;63.80;;;12.60;;
20629;SDS011;17386;43.846;25.950;2022-12-07T03:37:23;49.33;;;12.13;;
20629;SDS011;17386;43.846;25.950;2022-12-07T03:42:16;66.70;;;13.52;;
20629;SDS011;17386;43.846;25.950;2022-12-07T03:44:42;57.92;;;13.73;;
20629;SDS011;17386;43.846;25.950;2022-12-07T03:47:12;53.95;;;13.05;;
20629;SDS011;17386;43.846;25.950;2022-12-07T03:49:51;58.42;;;12.38;;
20629;SDS011;17386;43.846;25.950;2022-12-07T03:55:11;50.72;;;11.80;;
20629;SDS011;17386;43.846;25.950;2022-12-07T03:57:46;55.20;;;11.82;;
20629;SDS011;17386;43.846;25.950;2022-12-07T04:00:14;59.30;;;14.20;;
20629;SDS011;17386;43.846;25.950;2022-12-07T04:02:41;58.95;;;13.80;;
20629;SDS011;17386;43.846;25.950;2022-12-07T04:05:07;53.10;;;14.00;;
20629;SDS011;17386;43.846;25.950;2022-12-07T04:07:33;50.60;;;13.02;;
20629;SDS011;17386;43.846;25.950;2022-12-07T04:09:58;57.15;;;14.25;;
20629;SDS011;17386;43.846;25.950;2022-12-07T04:12:23;53.00;;;14.05;;
20629;SDS011;17386;43.846;25.950;2022-12-07T04:14:49;49.30;;;14.25;;
20629;SDS011;17386;43.846;25.950;2022-12-07T04:17:14;51.70;;;13.70;;
20629;SDS011;17386;43.846;25.950;2022-12-07T04:19:40;51.70;;;13.65;;
20629;SDS011;17386;43.846;25.950;2022-12-07T04:22:06;48.67;;;13.02;;
20629;SDS011;17386;43.846;25.950;2022-12-07T04:24:32;44.15;;;13.35;;
20629;SDS011;17386;43.846;25.950;2022-12-07T04:26:59;51.08;;;13.63;;
20629;SDS011;17386;43.846;25.950;2022-12-07T04:29:25;46.45;;;12.75;;
20629;SDS011;17386;43.846;25.950;2022-12-07T04:31:50;47.45;;;14.50;;
20629;SDS011;17386;43.846;25.950;2022-12-07T04:34:17;52.67;;;14.32;;
20629;SDS011;17386;43.846;25.950;2022-12-07T04:36:43;48.80;;;13.70;;
20629;SDS011;17386;43.846;25.950;2022-12-07T04:39:23;47.00;;;13.88;;
20629;SDS011;17386;43.846;25.950;2022-12-07T04:41:50;39.60;;;12.73;;
20629;SDS011;17386;43.846;25.950;2022-12-07T04:44:16;45.35;;;12.88;;
20629;SDS011;17386;43.846;25.950;2022-12-07T04:46:43;43.95;;;12.80;;
20629;SDS011;17386;43.846;25.950;2022-12-07T04:49:09;42.55;;;12.90;;
20629;SDS011;17386;43.846;25.950;2022-12-07T04:51:35;45.10;;;13.40;;
20629;SDS011;17386;43.846;25.950;2022-12-07T04:54:00;42.35;;;12.20;;
20629;SDS011;17386;43.846;25.950;2022-12-07T04:56:26;44.47;;;13.23;;
20629;SDS011;17386;43.846;25.950;2022-12-07T04:58:52;50.45;;;14.55;;
20629;SDS011;17386;43.846;25.950;2022-12-07T05:01:18;45.38;;;13.10;;
20629;SDS011;17386;43.846;25.950;2022-12-07T05:03:44;45.05;;;12.15;;
20629;SDS011;17386;43.846;25.950;2022-12-07T05:06:10;47.67;;;13.88;;
20629;SDS011;17386;43.846;25.950;2022-12-07T05:08:36;42.20;;;12.20;;
20629;SDS011;17386;43.846;25.950;2022-12-07T05:11:02;48.10;;;14.30;;
20629;SDS011;17386;43.846;25.950;2022-12-07T05:13:29;48.40;;;12.57;;
20629;SDS011;17386;43.846;25.950;2022-12-07T05:15:54;48.80;;;13.30;;
20629;SDS011;17386;43.846;25.950;2022-12-07T05:18:20;48.00;;;12.98;;
20629;SDS011;17386;43.846;25.950;2022-12-07T05:20:46;46.97;;;14.93;;
20629;SDS011;17386;43.846;25.950;2022-12-07T05:23:11;46.63;;;14.35;;
20629;SDS011;17386;43.846;25.950;2022-12-07T05:25:37;53.03;;;14.80;;
20629;SDS011;17386;43.846;25.950;2022-12-07T05:28:03;50.38;;;14.50;;
20629;SDS011;17386;43.846;25.950;2022-12-07T05:30:29;42.25;;;12.45;;
20629;SDS011;17386;43.846;25.950;2022-12-07T05:32:55;44.40;;;13.75;;
20629;SDS011;17386;43.846;25.950;2022-12-07T05:35:20;47.75;;;13.32;;
20629;SDS011;17386;43.846;25.950;2022-12-07T05:37:46;48.28;;;14.50;;
20629;SDS011;17386;43.846;25.950;2022-12-07T05:40:11;46.60;;;14.00;;
20629;SDS011;17386;43.846;25.950;2022-12-07T05:42:39;51.72;;;14.70;;
20629;SDS011;17386;43.846;25.950;2022-12-07T05:45:04;48.28;;;14.57;;
20629;SDS011;17386;43.846;25.950;2022-12-07T05:47:30;54.00;;;15.65;;
20629;SDS011;17386;43.846;25.950;2022-12-07T05:49:56;50.28;;;15.27;;
20629;SDS011;17386;43.846;25.950;2022-12-07T05:52:22;45.00;;;14.68;;
20629;SDS011;17386;43.846;25.950;2022-12-07T05:54:48;50.05;;;16.20;;
20629;SDS011;17386;43.846;25.950;2022-12-07T05:57:13;54.05;;;16.23;;
20629;SDS011;17386;43.846;25.950;2022-12-07T05:59:38;51.38;;;15.13;;
20629;SDS011;17386;43.846;25.950;2022-12-07T06:02:05;50.60;;;15.60;;
20629;SDS011;17386;43.846;25.950;2022-12-07T06:04:34;46.85;;;14.98;;
20629;SDS011;17386;43.846;25.950;2022-12-07T06:07:02;66.05;;;19.88;;
20629;SDS011;17386;43.846;25.950;2022-12-07T06:09:28;68.60;;;22.90;;
20629;SDS011;17386;43.846;25.950;2022-12-07T06:11:54;52.33;;;17.88;;
20629;SDS011;17386;43.846;25.950;2022-12-07T06:14:39;45.28;;;14.90;;
20629;SDS011;17386;43.846;25.950;2022-12-07T06:17:05;51.05;;;15.00;;
20629;SDS011;17386;43.846;25.950;2022-12-07T06:19:31;40.08;;;13.60;;
20629;SDS011;17386;43.846;25.950;2022-12-07T06:21:57;38.45;;;12.15;;
20629;SDS011;17386;43.846;25.950;2022-12-07T06:24:22;35.05;;;11.48;;
20629;SDS011;17386;43.846;25.950;2022-12-07T06:26:48;36.78;;;12.98;;
20629;SDS011;17386;43.846;25.950;2022-12-07T06:29:14;41.28;;;12.77;;
20629;SDS011;17386;43.846;25.950;2022-12-07T06:31:40;38.15;;;12.73;;
20629;SDS011;17386;43.846;25.950;2022-12-07T06:34:06;34.55;;;11.82;;
20629;SDS011;17386;43.846;25.950;2022-12-07T06:36:34;35.05;;;11.48;;
20629;SDS011;17386;43.846;25.950;2022-12-07T06:39:00;34.67;;;11.50;;
20629;SDS011;17386;43.846;25.950;2022-12-07T06:41:26;37.47;;;12.30;;
20629;SDS011;17386;43.846;25.950;2022-12-07T06:43:51;31.10;;;10.32;;
20629;SDS011;17386;43.846;25.950;2022-12-07T06:46:17;34.70;;;10.73;;
20629;SDS011;17386;43.846;25.950;2022-12-07T06:48:42;30.20;;;10.48;;
20629;SDS011;17386;43.846;25.950;2022-12-07T06:51:08;29.20;;;9.50;;
20629;SDS011;17386;43.846;25.950;2022-12-07T06:53:34;25.80;;;9.40;;
20629;SDS011;17386;43.846;25.950;2022-12-07T06:56:00;27.05;;;9.18;;
20629;SDS011;17386;43.846;25.950;2022-12-07T06:58:25;22.77;;;8.82;;
20629;SDS011;17386;43.846;25.950;2022-12-07T07:00:50;24.63;;;9.15;;
20629;SDS011;17386;43.846;25.950;2022-12-07T07:03:16;26.20;;;8.90;;
20629;SDS011;17386;43.846;25.950;2022-12-07T07:05:42;21.15;;;8.30;;
20629;SDS011;17386;43.846;25.950;2022-12-07T07:08:08;25.85;;;9.30;;
20629;SDS011;17386;43.846;25.950;2022-12-07T07:10:34;26.25;;;10.00;;
20629;SDS011;17386;43.846;25.950;2022-12-07T07:12:59;24.40;;;9.27;;
20629;SDS011;17386;43.846;25.950;2022-12-07T07:15:24;28.35;;;11.02;;
20629;SDS011;17386;43.846;25.950;2022-12-07T07:17:50;29.00;;;9.93;;
20629;SDS011;17386;43.846;25.950;2022-12-07T07:20:15;25.45;;;9.88;;
20629;SDS011;17386;43.846;25.950;2022-12-07T07:22:41;26.92;;;9.40;;
20629;SDS011;17386;43.846;25.950;2022-12-07T07:25:07;30.30;;;10.20;;
20629;SDS011;17386;43.846;25.950;2022-12-07T07:27:32;27.92;;;9.40;;
20629;SDS011;17386;43.846;25.950;2022-12-07T07:29:58;24.35;;;8.98;;
20629;SDS011;17386;43.846;25.950;2022-12-07T07:32:23;28.42;;;9.50;;
20629;SDS011;17386;43.846;25.950;2022-12-07T07:34:48;27.95;;;9.48;;
20629;SDS011;17386;43.846;25.950;2022-12-07T07:37:14;24.33;;;9.60;;
20629;SDS011;17386;43.846;25.950;2022-12-07T07:39:39;31.17;;;9.95;;
20629;SDS011;17386;43.846;25.950;2022-12-07T07:42:05;29.45;;;10.50;;
20629;SDS011;17386;43.846;25.950;2022-12-07T07:44:32;31.00;;;9.80;;
20629;SDS011;17386;43.846;25.950;2022-12-07T07:46:58;34.80;;;11.32;;
20629;SDS011;17386;43.846;25.950;2022-12-07T07:49:23;31.40;;;13.38;;
20629;SDS011;17386;43.846;25.950;2022-12-07T07:51:49;38.08;;;15.13;;
20629;SDS011;17386;43.846;25.950;2022-12-07T07:54:14;30.58;;;12.32;;
20629;SDS011;17386;43.846;25.950;2022-12-07T07:56:40;25.77;;;9.52;;
20629;SDS011;17386;43.846;25.950;2022-12-07T07:59:05;24.65;;;10.88;;
20629;SDS011;17386;43.846;25.950;2022-12-07T08:01:31;26.75;;;10.85;;
20629;SDS011;17386;43.846;25.950;2022-12-07T08:03:56;25.50;;;10.75;;
20629;SDS011;17386;43.846;25.950;2022-12-07T08:06:21;26.00;;;8.60;;
20629;SDS011;17386;43.846;25.950;2022-12-07T08:08:47;21.77;;;8.07;;
20629;SDS011;17386;43.846;25.950;2022-12-07T08:11:12;26.25;;;10.13;;
20629;SDS011;17386;43.846;25.950;2022-12-07T08:13:38;26.70;;;9.95;;
20629;SDS011;17386;43.846;25.950;2022-12-07T08:16:04;28.15;;;9.68;;
20629;SDS011;17386;43.846;25.950;2022-12-07T08:18:35;28.67;;;9.60;;
20629;SDS011;17386;43.846;25.950;2022-12-07T08:21:02;32.28;;;10.15;;
20629;SDS011;17386;43.846;25.950;2022-12-07T08:23:28;26.08;;;9.65;;
20629;SDS011;17386;43.846;25.950;2022-12-07T08:25:54;29.60;;;10.15;;
20629;SDS011;17386;43.846;25.950;2022-12-07T08:28:24;28.30;;;10.93;;
20629;SDS011;17386;43.846;25.950;2022-12-07T08:30:50;27.25;;;10.57;;
20629;SDS011;17386;43.846;25.950;2022-12-07T08:33:15;31.30;;;10.55;;
20629;SDS011;17386;43.846;25.950;2022-12-07T08:35:40;29.45;;;10.50;;
20629;SDS011;17386;43.846;25.950;2022-12-07T08:38:06;28.60;;;10.60;;
20629;SDS011;17386;43.846;25.950;2022-12-07T08:40:31;27.60;;;9.07;;
20629;SDS011;17386;43.846;25.950;2022-12-07T08:42:57;28.05;;;10.20;;
20629;SDS011;17386;43.846;25.950;2022-12-07T08:45:22;25.35;;;8.63;;
20629;SDS011;17386;43.846;25.950;2022-12-07T08:50:22;26.00;;;9.90;;
20629;SDS011;17386;43.846;25.950;2022-12-07T08:52:49;31.73;;;10.82;;
20629;SDS011;17386;43.846;25.950;2022-12-07T08:55:18;26.98;;;9.82;;
20629;SDS011;17386;43.846;25.950;2022-12-07T08:57:44;32.10;;;10.57;;
20629;SDS011;17386;43.846;25.950;2022-12-07T09:00:09;23.25;;;9.45;;
20629;SDS011;17386;43.846;25.950;2022-12-07T09:02:35;23.90;;;9.60;;
20629;SDS011;17386;43.846;25.950;2022-12-07T09:05:01;24.77;;;9.55;;
20629;SDS011;17386;43.846;25.950;2022-12-07T09:07:27;27.83;;;10.25;;
20629;SDS011;17386;43.846;25.950;2022-12-07T09:09:54;26.85;;;10.52;;
20629;SDS011;17386;43.846;25.950;2022-12-07T09:12:19;26.92;;;11.43;;
20629;SDS011;17386;43.846;25.950;2022-12-07T09:14:44;24.67;;;10.05;;
20629;SDS011;17386;43.846;25.950;2022-12-07T09:17:10;22.48;;;9.65;;
20629;SDS011;17386;43.846;25.950;2022-12-07T09:19:37;21.50;;;9.55;;
20629;SDS011;17386;43.846;25.950;2022-12-07T09:22:03;22.98;;;9.90;;
20629;SDS011;17386;43.846;25.950;2022-12-07T09:24:30;23.50;;;9.25;;
20629;SDS011;17386;43.846;25.950;2022-12-07T09:26:56;19.27;;;8.23;;
20629;SDS011;17386;43.846;25.950;2022-12-07T09:29:22;24.90;;;9.85;;
20629;SDS011;17386;43.846;25.950;2022-12-07T09:31:48;19.08;;;8.23;;
20629;SDS011;17386;43.846;25.950;2022-12-07T09:34:13;23.25;;;9.57;;
20629;SDS011;17386;43.846;25.950;2022-12-07T09:36:39;20.67;;;9.18;;
20629;SDS011;17386;43.846;25.950;2022-12-07T09:39:04;22.52;;;9.68;;
20629;SDS011;17386;43.846;25.950;2022-12-07T09:41:31;23.15;;;9.73;;
20629;SDS011;17386;43.846;25.950;2022-12-07T09:49:01;21.92;;;9.73;;
20629;SDS011;17386;43.846;25.950;2022-12-07T09:51:26;17.35;;;7.88;;
20629;SDS011;17386;43.846;25.950;2022-12-07T09:53:53;22.00;;;8.25;;
20629;SDS011;17386;43.846;25.950;2022-12-07T09:56:20;18.20;;;8.05;;
20629;SDS011;17386;43.846;25.950;2022-12-07T09:58:47;22.02;;;8.57;;
20629;SDS011;17386;43.846;25.950;2022-12-07T10:01:14;19.25;;;7.95;;
20629;SDS011;17386;43.846;25.950;2022-12-07T10:03:54;17.27;;;7.90;;
20629;SDS011;17386;43.846;25.950;2022-12-07T10:06:23;13.73;;;6.30;;
20629;SDS011;17386;43.846;25.950;2022-12-07T10:08:49;14.93;;;7.10;;
20629;SDS011;17386;43.846;25.950;2022-12-07T10:11:14;17.02;;;6.50;;
20629;SDS011;17386;43.846;25.950;2022-12-07T10:13:45;14.70;;;6.50;;
20629;SDS011;17386;43.846;25.950;2022-12-07T10:16:37;15.35;;;6.60;;
20629;SDS011;17386;43.846;25.950;2022-12-07T10:24:29;15.15;;;6.20;;
20629;SDS011;17386;43.846;25.950;2022-12-07T10:26:55;16.77;;;7.10;;
20629;SDS011;17386;43.846;25.950;2022-12-07T10:29:28;17.42;;;7.35;;
20629;SDS011;17386;43.846;25.950;2022-12-07T10:32:00;18.20;;;7.75;;
20629;SDS011;17386;43.846;25.950;2022-12-07T10:34:29;21.67;;;8.82;;
20629;SDS011;17386;43.846;25.950;2022-12-07T10:39:44;20.60;;;8.10;;
20629;SDS011;17386;43.846;25.950;2022-12-07T11:06:10;27.33;;;11.18;;
20629;SDS011;17386;43.846;25.950;2022-12-07T11:12:34;21.35;;;8.77;;
20629;SDS011;17386;43.846;25.950;2022-12-07T11:39:10;26.30;;;11.93;;
20629;SDS011;17386;43.846;25.950;2022-12-07T11:41:46;24.08;;;10.25;;
20629;SDS011;17386;43.846;25.950;2022-12-07T11:55:30;25.45;;;10.05;;
20629;SDS011;17386;43.846;25.950;2022-12-07T12:00:36;26.77;;;11.23;;
20629;SDS011;17386;43.846;25.950;2022-12-07T12:03:09;20.50;;;9.30;;
20629;SDS011;17386;43.846;25.950;2022-12-07T12:05:41;18.95;;;8.82;;
20629;SDS011;17386;43.846;25.950;2022-12-07T12:08:50;21.95;;;9.35;;
20629;SDS011;17386;43.846;25.950;2022-12-07T12:19:42;24.90;;;10.40;;
20629;SDS011;17386;43.846;25.950;2022-12-07T12:22:35;25.10;;;10.25;;
20629;SDS011;17386;43.846;25.950;2022-12-07T12:25:14;26.35;;;10.02;;
20629;SDS011;17386;43.846;25.950;2022-12-07T12:27:53;33.88;;;14.80;;
20629;SDS011;17386;43.846;25.950;2022-12-07T12:33:22;28.50;;;11.32;;
20629;SDS011;17386;43.846;25.950;2022-12-07T12:44:08;40.00;;;16.92;;
20629;SDS011;17386;43.846;25.950;2022-12-07T12:46:58;26.55;;;11.73;;
20629;SDS011;17386;43.846;25.950;2022-12-07T12:54:27;33.15;;;14.70;;
20629;SDS011;17386;43.846;25.950;2022-12-07T12:59:32;30.15;;;11.95;;
20629;SDS011;17386;43.846;25.950;2022-12-07T13:15:31;34.58;;;16.13;;
20629;SDS011;17386;43.846;25.950;2022-12-07T13:18:02;40.17;;;15.88;;
20629;SDS011;17386;43.846;25.950;2022-12-07T13:23:16;36.30;;;15.25;;
20629;SDS011;17386;43.846;25.950;2022-12-07T13:25:49;33.42;;;13.70;;
20629;SDS011;17386;43.846;25.950;2022-12-07T13:28:20;31.55;;;14.18;;
20629;SDS011;17386;43.846;25.950;2022-12-07T13:31:04;32.75;;;14.95;;
20629;SDS011;17386;43.846;25.950;2022-12-07T13:33:34;38.25;;;15.75;;
20629;SDS011;17386;43.846;25.950;2022-12-07T13:36:00;36.42;;;14.57;;
20629;SDS011;17386;43.846;25.950;2022-12-07T13:38:30;37.40;;;14.98;;
20629;SDS011;17386;43.846;25.950;2022-12-07T13:41:31;38.13;;;14.45;;
20629;SDS011;17386;43.846;25.950;2022-12-07T13:46:47;37.70;;;16.80;;
20629;SDS011;17386;43.846;25.950;2022-12-07T13:49:24;44.10;;;17.95;;
20629;SDS011;17386;43.846;25.950;2022-12-07T13:51:51;40.03;;;17.13;;
20629;SDS011;17386;43.846;25.950;2022-12-07T13:54:18;47.97;;;16.70;;
20629;SDS011;17386;43.846;25.950;2022-12-07T13:56:44;44.25;;;17.60;;
20629;SDS011;17386;43.846;25.950;2022-12-07T13:59:17;39.58;;;16.80;;
20629;SDS011;17386;43.846;25.950;2022-12-07T14:01:45;40.05;;;18.20;;
20629;SDS011;17386;43.846;25.950;2022-12-07T14:06:51;42.58;;;17.40;;
20629;SDS011;17386;43.846;25.950;2022-12-07T14:09:18;40.42;;;16.48;;
20629;SDS011;17386;43.846;25.950;2022-12-07T14:11:47;42.35;;;16.75;;
20629;SDS011;17386;43.846;25.950;2022-12-07T14:14:18;45.35;;;17.70;;
20629;SDS011;17386;43.846;25.950;2022-12-07T14:17:11;43.47;;;16.80;;
20629;SDS011;17386;43.846;25.950;2022-12-07T14:19:42;37.70;;;15.85;;
20629;SDS011;17386;43.846;25.950;2022-12-07T14:22:53;37.83;;;16.35;;
20629;SDS011;17386;43.846;25.950;2022-12-07T14:28:09;36.88;;;15.70;;
20629;SDS011;17386;43.846;25.950;2022-12-07T14:30:49;39.42;;;16.83;;
20629;SDS011;17386;43.846;25.950;2022-12-07T14:33:14;45.17;;;16.60;;
20629;SDS011;17386;43.846;25.950;2022-12-07T14:35:40;43.30;;;16.20;;
20629;SDS011;17386;43.846;25.950;2022-12-07T14:38:05;46.17;;;18.23;;
20629;SDS011;17386;43.846;25.950;2022-12-07T14:40:31;49.83;;;17.77;;
20629;SDS011;17386;43.846;25.950;2022-12-07T14:42:59;48.90;;;17.30;;
20629;SDS011;17386;43.846;25.950;2022-12-07T14:45:27;53.28;;;18.58;;
20629;SDS011;17386;43.846;25.950;2022-12-07T14:47:53;51.47;;;18.35;;
20629;SDS011;17386;43.846;25.950;2022-12-07T14:50:19;52.03;;;19.88;;
20629;SDS011;17386;43.846;25.950;2022-12-07T14:52:48;54.15;;;17.58;;
20629;SDS011;17386;43.846;25.950;2022-12-07T14:57:55;57.65;;;19.85;;
20629;SDS011;17386;43.846;25.950;2022-12-07T15:00:23;53.63;;;18.67;;
20629;SDS011;17386;43.846;25.950;2022-12-07T15:02:53;48.80;;;18.45;;
20629;SDS011;17386;43.846;25.950;2022-12-07T15:05:19;46.70;;;17.02;;
20629;SDS011;17386;43.846;25.950;2022-12-07T15:07:45;51.58;;;17.58;;
20629;SDS011;17386;43.846;25.950;2022-12-07T15:10:25;45.85;;;16.58;;
20629;SDS011;17386;43.846;25.950;2022-12-07T15:12:57;49.45;;;18.15;;
20629;SDS011;17386;43.846;25.950;2022-12-07T15:15:45;42.70;;;17.80;;
20629;SDS011;17386;43.846;25.950;2022-12-07T15:18:10;50.40;;;19.73;;
20629;SDS011;17386;43.846;25.950;2022-12-07T15:20:36;59.25;;;19.17;;
20629;SDS011;17386;43.846;25.950;2022-12-07T15:23:02;48.85;;;19.77;;
20629;SDS011;17386;43.846;25.950;2022-12-07T15:25:27;49.92;;;18.52;;
20629;SDS011;17386;43.846;25.950;2022-12-07T15:27:53;46.78;;;19.23;;
20629;SDS011;17386;43.846;25.950;2022-12-07T15:30:18;49.67;;;18.17;;
20629;SDS011;17386;43.846;25.950;2022-12-07T15:32:44;50.60;;;18.13;;
20629;SDS011;17386;43.846;25.950;2022-12-07T15:35:14;47.75;;;17.90;;
20629;SDS011;17386;43.846;25.950;2022-12-07T15:37:40;57.45;;;20.13;;
20629;SDS011;17386;43.846;25.950;2022-12-07T15:40:05;51.33;;;18.05;;
20629;SDS011;17386;43.846;25.950;2022-12-07T15:42:32;54.28;;;19.25;;
20629;SDS011;17386;43.846;25.950;2022-12-07T15:44:57;51.72;;;18.95;;
20629;SDS011;17386;43.846;25.950;2022-12-07T15:47:29;51.95;;;18.70;;
20629;SDS011;17386;43.846;25.950;2022-12-07T15:49:55;47.50;;;17.85;;
20629;SDS011;17386;43.846;25.950;2022-12-07T15:52:21;51.90;;;19.48;;
20629;SDS011;17386;43.846;25.950;2022-12-07T15:54:46;49.63;;;17.58;;
20629;SDS011;17386;43.846;25.950;2022-12-07T15:57:12;47.60;;;17.48;;
20629;SDS011;17386;43.846;25.950;2022-12-07T15:59:38;51.05;;;17.40;;
20629;SDS011;17386;43.846;25.950;2022-12-07T16:02:03;46.90;;;16.95;;
20629;SDS011;17386;43.846;25.950;2022-12-07T16:04:29;53.65;;;19.08;;
20629;SDS011;17386;43.846;25.950;2022-12-07T16:06:55;50.65;;;17.90;;
20629;SDS011;17386;43.846;25.950;2022-12-07T16:09:21;63.58;;;22.88;;
20629;SDS011;17386;43.846;25.950;2022-12-07T16:11:46;53.15;;;20.33;;
20629;SDS011;17386;43.846;25.950;2022-12-07T16:14:12;53.35;;;18.80;;
20629;SDS011;17386;43.846;25.950;2022-12-07T16:16:37;53.25;;;17.92;;
20629;SDS011;17386;43.846;25.950;2022-12-07T16:19:05;49.92;;;17.15;;
20629;SDS011;17386;43.846;25.950;2022-12-07T16:21:30;48.35;;;16.55;;
20629;SDS011;17386;43.846;25.950;2022-12-07T16:23:57;42.17;;;15.38;;
20629;SDS011;17386;43.846;25.950;2022-12-07T16:26:23;43.72;;;15.93;;
20629;SDS011;17386;43.846;25.950;2022-12-07T16:28:49;44.65;;;14.88;;
20629;SDS011;17386;43.846;25.950;2022-12-07T16:31:16;53.13;;;16.95;;
20629;SDS011;17386;43.846;25.950;2022-12-07T16:33:43;46.08;;;16.77;;
20629;SDS011;17386;43.846;25.950;2022-12-07T16:36:10;47.50;;;16.65;;
20629;SDS011;17386;43.846;25.950;2022-12-07T16:38:37;48.63;;;16.95;;
20629;SDS011;17386;43.846;25.950;2022-12-07T16:41:03;54.17;;;17.13;;
20629;SDS011;17386;43.846;25.950;2022-12-07T16:43:30;51.22;;;18.42;;
20629;SDS011;17386;43.846;25.950;2022-12-07T16:45:55;50.20;;;16.38;;
20629;SDS011;17386;43.846;25.950;2022-12-07T16:48:21;47.97;;;14.90;;
20629;SDS011;17386;43.846;25.950;2022-12-07T16:50:47;48.08;;;16.85;;
20629;SDS011;17386;43.846;25.950;2022-12-07T16:53:13;50.50;;;16.17;;
20629;SDS011;17386;43.846;25.950;2022-12-07T16:55:41;53.53;;;16.10;;
20629;SDS011;17386;43.846;25.950;2022-12-07T16:58:14;53.40;;;16.80;;
20629;SDS011;17386;43.846;25.950;2022-12-07T17:00:40;47.30;;;17.35;;
20629;SDS011;17386;43.846;25.950;2022-12-07T17:03:07;57.08;;;18.65;;
20629;SDS011;17386;43.846;25.950;2022-12-07T17:05:33;60.03;;;18.55;;
20629;SDS011;17386;43.846;25.950;2022-12-07T17:08:01;53.88;;;18.15;;
20629;SDS011;17386;43.846;25.950;2022-12-07T17:10:28;57.85;;;16.63;;
20629;SDS011;17386;43.846;25.950;2022-12-07T17:12:53;53.53;;;16.75;;
20629;SDS011;17386;43.846;25.950;2022-12-07T17:15:19;53.63;;;16.42;;